Time;durP1;ratioP1;P1;durP2;ratioP2;P2;SDS_P1;SDS_P2;PMS_P1;PMS_P2;Temp;Humidity;BMP_temperature;BMP_pressure;BME280_temperature;BME280_humidity;BME280_pressure;Samples;Min_cycle;Max_cycle;Signal;HPM_P1;HPM_P2
2022/05/30 00:02:12;;;;;;;12.77;4.03;;;11.50;81.40;11.70;95861.00;;;;5055159;28;20303;-87
2022/05/30 00:04:41;;;;;;;4.63;3.47;;;11.50;81.40;11.70;95866.00;;;;5060348;28;20196;-87
2022/05/30 00:07:08;;;;;;;7.07;3.67;;;11.50;81.40;11.70;95862.00;;;;5065045;28;20199;-87
2022/05/30 00:09:36;;;;;;;28.93;5.53;;;11.50;82.30;11.70;95852.00;;;;5050431;28;20212;-86
2022/05/30 00:12:04;;;;;;;10.30;4.07;;;11.50;81.60;11.70;95860.00;;;;5063866;28;20224;-88
2022/05/30 00:14:32;;;;;;;7.83;3.57;;;11.50;81.40;11.70;95851.00;;;;5055404;28;20203;-87
2022/05/30 00:16:59;;;;;;;17.30;3.97;;;11.50;81.30;11.70;95860.00;;;;5050131;28;20184;-87
2022/05/30 00:19:26;;;;;;;6.13;3.47;;;11.40;81.90;11.70;95851.00;;;;5048776;28;20207;-87
2022/05/30 00:21:56;;;;;;;19.00;4.13;;;11.50;81.30;11.70;95857.00;;;;5054577;28;20216;-87
2022/05/30 00:24:23;;;;;;;7.90;3.07;;;11.50;81.20;11.70;95849.00;;;;5057299;28;20225;-87
2022/05/30 00:26:50;;;;;;;3.63;3.27;;;11.50;81.20;11.70;95851.00;;;;5050270;28;20195;-87
2022/05/30 00:29:17;;;;;;;6.57;3.27;;;11.50;81.30;11.70;95852.00;;;;5047884;28;20296;-87
2022/05/30 00:31:44;;;;;;;10.37;3.43;;;11.80;81.60;11.70;95861.00;;;;5055888;28;20224;-87
2022/05/30 00:34:11;;;;;;;23.53;4.77;;;11.40;82.00;11.70;95840.00;;;;5061639;28;20678;-87
2022/05/30 00:36:38;;;;;;;26.00;3.90;;;11.60;81.40;11.70;95841.00;;;;5062760;28;20192;-87
2022/05/30 00:39:07;;;;;;;18.50;4.10;;;11.50;81.20;11.60;95843.00;;;;5050015;28;20202;-87
2022/05/30 00:41:34;;;;;;;13.47;3.47;;;11.40;81.00;11.70;95846.00;;;;5063372;28;20303;-87
2022/05/30 00:44:01;;;;;;;5.63;3.23;;;11.40;81.00;11.60;95838.00;;;;5058321;28;20235;-86
2022/05/30 00:46:28;;;;;;;25.37;4.53;;;11.40;81.20;11.70;95841.00;;;;5061448;28;20199;-86
2022/05/30 00:49:00;;;;;;;15.77;3.57;;;11.40;81.20;11.60;95840.00;;;;5047066;28;20193;-87
2022/05/30 00:51:40;;;;;;;4.83;3.30;;;11.40;81.00;11.60;95824.00;;;;5053599;28;20239;-86
2022/05/30 00:54:12;;;;;;;8.33;3.40;;;11.40;81.30;11.60;95835.00;;;;5055119;28;20630;-87
2022/05/30 00:56:45;;;;;;;14.40;3.70;;;11.40;81.40;11.60;95836.00;;;;5061211;28;20228;-87
2022/05/30 00:59:13;;;;;;;20.47;4.07;;;11.40;81.50;11.60;95831.00;;;;5053329;28;20287;-86
2022/05/30 01:01:40;;;;;;;16.83;3.53;;;11.50;81.70;11.60;95823.00;;;;5064121;28;20672;-87
2022/05/30 01:06:57;;;;;;;16.33;3.93;;;11.40;81.60;11.60;95828.00;;;;5056149;28;20199;-87
2022/05/30 01:09:31;;;;;;;18.17;4.73;;;11.40;81.50;11.60;95815.00;;;;5069657;28;20293;-86
2022/05/30 01:12:00;;;;;;;25.13;5.03;;;11.40;81.50;11.60;95814.00;;;;5045734;28;20705;-85
2022/05/30 01:14:30;;;;;;;9.50;3.87;;;11.40;81.50;11.60;95813.00;;;;5067186;28;20603;-87
2022/05/30 01:16:58;;;;;;;14.27;3.93;;;11.30;81.30;11.60;95802.00;;;;5046476;28;20201;-88
2022/05/30 01:19:47;;;;;;;9.00;4.00;;;11.40;81.50;11.60;95810.00;;;;5051672;28;20193;-86
2022/05/30 01:22:49;;;;;;;6.97;3.80;;;11.40;81.40;11.50;95796.00;;;;5057151;28;20227;-87
2022/05/30 01:25:40;;;;;;;8.73;3.83;;;11.40;81.40;11.60;95805.00;;;;5058315;28;20200;-87
2022/05/30 01:28:24;;;;;;;3.83;3.53;;;11.30;81.40;11.50;95801.00;;;;5037252;28;20495;-87
2022/05/30 01:30:52;;;;;;;4.00;3.80;;;11.30;81.60;11.60;95801.00;;;;5044158;28;20222;-87
2022/05/30 01:33:19;;;;;;;22.13;4.47;;;11.40;81.90;11.60;95797.00;;;;5040725;28;20677;-88
2022/05/30 01:35:46;;;;;;;7.63;4.00;;;11.30;81.90;11.60;95800.00;;;;5063493;28;20200;-87
2022/05/30 01:38:13;;;;;;;9.47;3.97;;;11.40;82.00;11.60;95790.00;;;;5060306;28;20235;-86
2022/05/30 01:40:40;;;;;;;10.47;4.23;;;11.40;81.90;11.60;95795.00;;;;5070759;28;20216;-87
2022/05/30 01:43:07;;;;;;;12.33;4.43;;;11.40;81.80;11.60;95790.00;;;;5054457;28;20220;-86
2022/05/30 01:45:35;;;;;;;11.97;4.20;;;11.40;82.20;11.60;95791.00;;;;5053198;28;20196;-87
2022/05/30 01:48:02;;;;;;;4.47;4.07;;;11.70;81.50;11.60;95788.00;;;;5057250;28;20196;-87
2022/05/30 01:50:30;;;;;;;4.83;3.97;;;11.40;81.30;11.60;95790.00;;;;5056368;28;20221;-87
2022/05/30 01:52:57;;;;;;;11.37;4.03;;;11.40;81.40;11.60;95790.00;;;;5057998;28;20598;-88
2022/05/30 01:55:24;;;;;;;17.83;4.90;;;11.40;81.40;11.60;95793.00;;;;5066978;28;20203;-87
2022/05/30 01:57:51;;;;;;;6.43;3.57;;;11.40;81.40;11.60;95788.00;;;;5061459;28;20202;-87
2022/05/30 02:00:18;;;;;;;15.23;3.50;;;11.40;81.30;11.60;95783.00;;;;5051972;28;20577;-87
2022/05/30 02:02:47;;;;;;;10.57;3.33;;;11.30;81.40;11.60;95786.00;;;;5064876;28;20192;-87
2022/05/30 02:05:14;;;;;;;17.83;3.90;;;11.40;81.60;11.60;95791.00;;;;5060066;28;20192;-87
2022/05/30 02:07:42;;;;;;;11.67;3.67;;;11.40;81.70;11.60;95780.00;;;;5054645;28;20196;-86
2022/05/30 02:10:10;;;;;;;49.67;5.83;;;11.40;81.80;11.60;95784.00;;;;5062474;28;20322;-86
2022/05/30 02:12:37;;;;;;;12.23;3.70;;;11.40;81.80;11.60;95790.00;;;;5053664;28;20311;-87
2022/05/30 02:15:05;;;;;;;56.57;5.77;;;11.40;81.70;11.60;95771.00;;;;5054975;28;20203;-87
2022/05/30 02:17:33;;;;;;;32.37;4.77;;;11.30;81.70;11.60;95779.00;;;;5050434;28;20203;-87
2022/05/30 02:20:01;;;;;;;27.70;4.27;;;11.30;82.30;11.50;95777.00;;;;5060866;28;20201;-87
2022/05/30 02:22:29;;;;;;;25.70;4.00;;;11.30;81.40;11.50;95782.00;;;;5061622;28;20230;-87
2022/05/30 02:24:56;;;;;;;17.83;3.93;;;11.40;81.30;11.50;95774.00;;;;5062632;28;20201;-87
2022/05/30 02:27:24;;;;;;;10.33;3.60;;;11.30;81.30;11.50;95772.00;;;;5057014;28;20189;-87
2022/05/30 02:29:52;;;;;;;14.67;3.90;;;11.30;81.40;11.50;95775.00;;;;5058648;28;20192;-87
2022/05/30 02:32:19;;;;;;;8.97;3.73;;;11.30;81.50;11.50;95775.00;;;;5061510;28;20724;-87
2022/05/30 02:37:47;;;;;;;11.63;3.73;;;11.30;82.30;11.50;95774.00;;;;4980023;28;20191;-86
2022/05/30 02:40:14;;;;;;;10.17;3.50;;;11.30;81.90;11.50;95775.00;;;;4974537;28;20203;-86
2022/05/30 02:42:42;;;;;;;13.60;4.03;;;11.30;81.90;11.50;95772.00;;;;5007341;28;20208;-87
2022/05/30 02:45:10;;;;;;;19.10;4.50;;;11.30;81.90;11.50;95778.00;;;;5048160;28;20223;-87
2022/05/30 02:47:37;;;;;;;12.00;4.33;;;11.30;81.70;11.50;95780.00;;;;5055490;28;20204;-87
2022/05/30 02:50:05;;;;;;;7.53;4.27;;;11.30;81.50;11.50;95784.00;;;;5050762;28;20196;-87
2022/05/30 02:52:32;;;;;;;3.90;3.70;;;11.30;81.50;11.50;95766.00;;;;5056936;28;20223;-87
2022/05/30 02:55:00;;;;;;;8.47;3.97;;;11.20;81.60;11.50;95773.00;;;;5045997;28;20553;-88
2022/05/30 02:57:27;;;;;;;5.87;3.97;;;11.70;82.00;11.50;95771.00;;;;5056054;28;20207;-87
2022/05/30 02:59:54;;;;;;;12.93;4.13;;;11.20;81.80;11.50;95771.00;;;;5049237;28;20203;-86
2022/05/30 03:02:21;;;;;;;4.70;3.70;;;11.20;81.80;11.50;95758.00;;;;5051333;28;20216;-87
2022/05/30 03:04:48;;;;;;;7.93;3.70;;;11.20;81.80;11.50;95770.00;;;;5058867;28;20203;-87
2022/05/30 03:07:15;;;;;;;9.07;4.03;;;11.20;81.80;11.50;95770.00;;;;5053690;28;20188;-87
2022/05/30 03:09:44;;;;;;;7.43;3.30;;;11.20;81.70;11.50;95768.00;;;;5058607;28;20204;-86
2022/05/30 03:12:12;;;;;;;16.70;4.10;;;11.30;81.80;11.50;95773.00;;;;5051676;28;20698;-86
2022/05/30 03:14:40;;;;;;;17.10;3.70;;;11.20;81.70;11.50;95779.00;;;;5055122;28;20207;-87
2022/05/30 03:17:07;;;;;;;16.60;3.60;;;11.20;81.60;11.50;95780.00;;;;5049829;28;20200;-88
2022/05/30 03:19:34;;;;;;;13.10;3.77;;;11.20;81.70;11.50;95776.00;;;;5055534;28;20228;-87
2022/05/30 03:22:01;;;;;;;23.37;3.83;;;11.30;81.80;11.50;95792.00;;;;5062896;28;20220;-86
2022/05/30 03:24:28;;;;;;;24.30;4.07;;;11.30;81.60;11.50;95791.00;;;;5053279;28;20207;-87
2022/05/30 03:26:55;;;;;;;13.63;3.80;;;11.30;81.40;11.50;95799.00;;;;5064732;28;20207;-87
2022/05/30 03:29:23;;;;;;;4.67;3.37;;;11.30;81.20;11.50;95799.00;;;;5055268;28;20207;-87
2022/05/30 03:31:50;;;;;;;9.07;3.53;;;11.20;81.10;11.50;95801.00;;;;5053375;28;20229;-87
2022/05/30 03:34:17;;;;;;;5.50;3.43;;;11.30;81.40;11.50;95812.00;;;;5053760;28;20207;-88
2022/05/30 03:37:07;;;;;;;8.10;3.60;;;11.20;81.20;11.40;95810.00;;;;5048591;28;20196;-88
2022/05/30 03:39:34;;;;;;;5.13;3.73;;;11.20;81.30;11.50;95811.00;;;;5057651;28;20279;-88
2022/05/30 03:42:01;;;;;;;12.30;3.60;;;11.20;81.40;11.40;95811.00;;;;5057892;28;20595;-86
2022/05/30 03:44:29;;;;;;;3.20;2.90;;;11.20;81.50;11.50;95807.00;;;;5060723;28;20197;-87
2022/05/30 03:46:56;;;;;;;14.80;3.30;;;11.20;81.40;11.40;95813.00;;;;5053733;28;20192;-87
2022/05/30 03:49:23;;;;;;;11.37;3.00;;;11.20;81.60;11.50;95813.00;;;;5058299;28;20651;-87
2022/05/30 03:51:50;;;;;;;11.90;2.60;;;11.20;81.60;11.50;95806.00;;;;5049462;28;20228;-87
2022/05/30 03:54:18;;;;;;;7.43;2.70;;;11.20;81.50;11.50;95810.00;;;;5055092;28;20290;-88
2022/05/30 03:56:45;;;;;;;4.67;2.03;;;11.20;81.70;11.50;95810.00;;;;5058222;28;20284;-88
2022/05/30 03:59:12;;;;;;;9.37;1.97;;;11.20;81.70;11.50;95820.00;;;;5056985;28;20278;-87
2022/05/30 04:01:41;;;;;;;3.47;1.77;;;11.20;81.60;11.50;95823.00;;;;5054703;28;20251;-87
2022/05/30 04:04:08;;;;;;;11.53;1.80;;;11.30;81.90;11.50;95824.00;;;;5059892;28;20196;-87
2022/05/30 04:06:35;;;;;;;4.63;2.00;;;11.30;82.10;11.60;95825.00;;;;5055427;28;20203;-87
2022/05/30 04:09:02;;;;;;;3.73;1.90;;;11.30;82.20;11.60;95821.00;;;;5050712;28;20667;-87
2022/05/30 04:11:30;;;;;;;4.43;1.93;;;11.30;82.20;11.60;95823.00;;;;5058652;28;20220;-87
2022/05/30 04:13:57;;;;;;;3.77;1.53;;;11.60;82.30;11.60;95828.00;;;;5060634;28;20663;-88
2022/05/30 04:16:25;;;;;;;7.33;2.10;;;11.30;82.10;11.70;95826.00;;;;5057026;28;20574;-86
2022/05/30 04:18:53;;;;;;;6.83;1.90;;;11.40;82.00;11.70;95825.00;;;;5049222;28;20291;-86
2022/05/30 04:21:22;;;;;;;4.53;1.70;;;11.60;81.70;11.70;95819.00;;;;5057083;28;20211;-87
2022/05/30 04:23:49;;;;;;;2.07;1.63;;;11.40;81.40;11.70;95822.00;;;;5051025;28;20616;-85
2022/05/30 04:26:18;;;;;;;2.50;1.73;;;12.00;81.90;11.70;95816.00;;;;5064760;28;20670;-85
2022/05/30 04:28:45;;;;;;;5.40;1.80;;;11.40;81.90;11.80;95816.00;;;;5065695;28;20200;-85
2022/05/30 04:31:14;;;;;;;2.10;1.90;;;11.50;82.00;11.90;95812.00;;;;5058466;28;20213;-85
2022/05/30 04:33:43;;;;;;;2.87;1.80;;;11.50;81.90;11.90;95813.00;;;;5048937;28;20308;-85
2022/05/30 04:36:13;;;;;;;2.10;1.67;;;11.50;81.90;12.00;95815.00;;;;5050781;28;20679;-84
2022/05/30 04:38:40;;;;;;;2.23;1.63;;;11.50;82.00;12.00;95809.00;;;;5064308;28;20199;-84
2022/05/30 04:41:07;;;;;;;1.87;1.70;;;11.50;82.00;12.00;95810.00;;;;5060665;28;20213;-85
2022/05/30 04:43:34;;;;;;;1.93;1.80;;;11.60;81.80;12.10;95813.00;;;;5051909;28;20219;-85
2022/05/30 04:46:08;;;;;;;1.53;1.53;;;11.60;81.70;12.10;95807.00;;;;5058584;28;20199;-85
2022/05/30 04:48:35;;;;;;;2.00;1.90;;;11.60;81.70;12.10;95815.00;;;;5048273;28;20215;-85
2022/05/30 04:51:02;;;;;;;6.60;2.00;;;11.60;81.90;12.20;95824.00;;;;5061921;28;20219;-84
2022/05/30 04:53:32;;;;;;;2.33;1.83;;;11.70;82.00;12.20;95822.00;;;;5050377;28;20222;-85
2022/05/30 04:55:59;;;;;;;1.97;1.80;;;11.70;81.80;12.20;95822.00;;;;5059587;28;20260;-85
2022/05/30 04:58:28;;;;;;;4.03;2.07;;;11.70;81.80;12.20;95820.00;;;;5057077;28;20190;-84
2022/05/30 05:00:58;;;;;;;2.57;1.73;;;11.70;81.80;12.20;95828.00;;;;5061234;28;20212;-84
2022/05/30 05:03:26;;;;;;;2.23;2.13;;;11.70;81.80;12.20;95830.00;;;;5049510;28;20677;-84
2022/05/30 05:06:02;;;;;;;2.07;1.97;;;11.80;82.10;12.30;95834.00;;;;5043030;28;20203;-85
2022/05/30 05:08:41;;;;;;;2.10;2.00;;;11.80;82.10;12.40;95839.00;;;;5051453;28;20279;-85
2022/05/30 05:11:20;;;;;;;2.07;1.97;;;11.90;82.20;12.40;95834.00;;;;5057335;28;20222;-85
2022/05/30 05:13:48;;;;;;;2.40;2.30;;;11.90;82.10;12.50;95838.00;;;;5066218;28;20216;-85
2022/05/30 05:16:17;;;;;;;2.33;2.13;;;12.00;82.40;12.60;95844.00;;;;5061322;28;20564;-85
2022/05/30 05:18:45;;;;;;;2.80;2.20;;;12.00;82.60;12.70;95843.00;;;;5051209;28;20189;-85
2022/05/30 05:21:18;;;;;;;2.53;2.33;;;12.10;82.90;12.80;95842.00;;;;5060744;28;20216;-85
2022/05/30 05:23:48;;;;;;;2.60;2.50;;;12.10;82.90;12.80;95845.00;;;;5054834;28;20191;-84
2022/05/30 05:26:16;;;;;;;4.03;2.97;;;12.20;83.00;12.90;95847.00;;;;5063585;28;20199;-84
2022/05/30 05:28:44;;;;;;;3.00;2.90;;;12.30;83.10;13.00;95846.00;;;;5063542;28;20283;-84
2022/05/30 05:31:17;;;;;;;3.53;3.33;;;12.40;83.20;13.10;95849.00;;;;5065402;28;20212;-84
2022/05/30 05:33:44;;;;;;;3.63;3.33;;;12.40;83.20;13.20;95852.00;;;;5060264;28;20221;-85
2022/05/30 05:36:11;;;;;;;3.73;3.50;;;12.50;83.40;13.40;95852.00;;;;5058842;28;20204;-85
2022/05/30 05:38:38;;;;;;;3.70;3.50;;;12.60;83.30;13.40;95850.00;;;;5060963;28;20197;-85
2022/05/30 05:41:22;;;;;;;3.50;3.30;;;12.70;84.10;13.50;95856.00;;;;5065324;28;20725;-86
2022/05/30 05:43:52;;;;;;;3.63;3.43;;;12.80;83.30;13.70;95842.00;;;;5045769;28;20204;-84
2022/05/30 05:46:23;;;;;;;3.10;2.90;;;12.90;83.30;13.70;95850.00;;;;5055343;28;20194;-86
2022/05/30 05:48:52;;;;;;;3.10;2.90;;;13.00;83.10;13.80;95856.00;;;;5050432;28;20638;-85
2022/05/30 05:51:21;;;;;;;2.70;2.60;;;13.00;83.00;13.90;95860.00;;;;5057278;28;20721;-86
2022/05/30 05:53:49;;;;;;;3.47;3.17;;;13.10;82.90;13.90;95859.00;;;;5065921;28;20216;-84
2022/05/30 05:56:19;;;;;;;3.07;2.87;;;13.20;82.60;14.00;95861.00;;;;5045021;28;20656;-84
2022/05/30 05:58:48;;;;;;;2.83;2.73;;;13.30;82.40;14.00;95858.00;;;;5072584;28;20223;-83
2022/05/30 06:01:19;;;;;;;3.10;2.90;;;13.30;82.40;14.10;95862.00;;;;5057309;28;20216;-85
2022/05/30 06:03:46;;;;;;;4.30;3.00;;;13.30;82.60;14.20;95863.00;;;;5041100;28;20202;-84
2022/05/30 06:06:14;;;;;;;3.60;3.40;;;13.40;82.80;14.30;95850.00;;;;5047571;28;20214;-83
2022/05/30 06:08:41;;;;;;;3.40;3.20;;;13.50;82.70;14.40;95860.00;;;;5062966;28;20196;-84
2022/05/30 06:13:48;;;;;;;2.83;2.73;;;13.70;81.90;14.50;95857.00;;;;5085493;23;20232;-81
2022/05/30 06:16:20;;;;;;;3.03;2.83;;;13.70;82.10;14.60;95855.00;;;;5065738;28;20282;-82
2022/05/30 06:18:48;;;;;;;3.20;3.00;;;13.80;82.00;14.70;95855.00;;;;5055363;28;20200;-81
2022/05/30 06:21:17;;;;;;;3.10;2.90;;;13.90;81.60;14.70;95853.00;;;;5060422;28;20211;-82
2022/05/30 06:23:45;;;;;;;3.17;2.97;;;13.90;81.30;14.70;95857.00;;;;5057488;28;20285;-81
2022/05/30 06:26:13;;;;;;;3.20;3.00;;;13.90;81.10;14.80;95855.00;;;;5061213;28;20725;-80
2022/05/30 06:28:42;;;;;;;3.13;2.93;;;14.00;81.40;14.80;95846.00;;;;5058375;28;20198;-80
2022/05/30 06:31:14;;;;;;;3.00;2.90;;;14.00;81.40;14.90;95854.00;;;;5054851;28;20663;-83
2022/05/30 06:33:41;;;;;;;3.40;3.20;;;14.10;81.50;15.00;95863.00;;;;5068707;28;20215;-81
2022/05/30 06:36:12;;;;;;;2.83;2.73;;;14.20;81.60;15.00;95861.00;;;;5036743;28;20598;-81
2022/05/30 06:38:40;;;;;;;3.03;2.83;;;14.20;81.70;15.10;95856.00;;;;5041893;28;20194;-81
2022/05/30 06:41:13;;;;;;;2.87;2.67;;;14.30;81.50;15.10;95865.00;;;;5034943;28;20204;-81
2022/05/30 06:43:42;;;;;;;2.80;2.60;;;14.30;81.20;15.10;95868.00;;;;5046677;28;20203;-81
2022/05/30 06:46:11;;;;;;;3.10;2.90;;;14.30;80.90;15.10;95861.00;;;;5055733;28;20649;-80
2022/05/30 06:48:38;;;;;;;2.80;2.70;;;14.40;80.70;15.20;95869.00;;;;5055242;28;20211;-80
2022/05/30 06:51:08;;;;;;;2.87;2.67;;;14.40;80.90;15.20;95868.00;;;;5054218;28;20573;-80
2022/05/30 06:53:37;;;;;;;2.87;2.77;;;14.50;81.20;15.20;95870.00;;;;5064317;28;20217;-80
2022/05/30 06:56:13;;;;;;;2.40;2.30;;;14.50;81.20;15.20;95869.00;;;;5058455;28;20594;-80
2022/05/30 06:58:40;;;;;;;3.13;2.93;;;14.60;81.00;15.30;95865.00;;;;5054348;28;20219;-82
2022/05/30 07:01:07;;;;;;;2.93;2.73;;;14.60;81.10;15.30;95867.00;;;;5067332;28;20192;-80
2022/05/30 07:03:36;;;;;;;2.77;2.57;;;14.60;81.40;15.40;95864.00;;;;5054861;28;20211;-82
2022/05/30 07:06:07;;;;;;;2.73;2.53;;;14.70;81.50;15.50;95876.00;;;;5047279;28;20211;-80
2022/05/30 07:08:35;;;;;;;3.30;3.10;;;14.80;81.70;15.50;95878.00;;;;5055554;28;20657;-82
2022/05/30 07:11:02;;;;;;;2.57;2.47;;;14.80;81.80;15.60;95875.00;;;;5054760;28;20566;-80
2022/05/30 07:13:29;;;;;;;2.90;2.70;;;14.90;82.10;15.70;95875.00;;;;5051203;28;20217;-82
2022/05/30 07:15:57;;;;;;;3.17;2.97;;;14.90;82.40;15.80;95869.00;;;;5039724;28;20221;-83
2022/05/30 07:18:24;;;;;;;3.20;3.00;;;15.00;82.40;16.00;95879.00;;;;5051468;28;20189;-81
2022/05/30 07:20:58;;;;;;;3.67;3.47;;;15.20;82.90;16.30;95876.00;;;;5057128;28;20654;-81
2022/05/30 07:23:26;;;;;;;3.33;3.03;;;15.30;82.60;16.40;95875.00;;;;5061517;28;20303;-81
2022/05/30 07:25:58;;;;;;;3.17;2.97;;;15.50;82.80;16.60;95876.00;;;;5042467;28;20275;-80
2022/05/30 07:28:28;;;;;;;3.23;2.97;;;15.60;82.20;16.70;95880.00;;;;5044824;28;20189;-80
2022/05/30 07:30:56;;;;;;;3.50;3.20;;;15.70;82.50;16.90;95877.00;;;;5059982;28;20196;-80
2022/05/30 07:33:23;;;;;;;3.83;3.13;;;15.90;82.70;17.10;95888.00;;;;5071391;28;20219;-80
2022/05/30 07:35:50;;;;;;;3.30;3.03;;;16.00;82.50;17.30;95881.00;;;;5049815;28;20256;-80
2022/05/30 07:38:19;;;;;;;3.60;3.30;;;16.20;82.50;17.40;95887.00;;;;5041550;28;20203;-82
2022/05/30 07:40:46;;;;;;;2.87;2.77;;;16.30;82.30;17.50;95883.00;;;;5072056;28;20192;-80
2022/05/30 07:43:14;;;;;;;3.43;3.13;;;16.40;81.90;17.70;95889.00;;;;5052318;28;20274;-80
2022/05/30 07:45:41;;;;;;;2.87;2.70;;;16.60;81.10;17.90;95887.00;;;;5049727;28;20716;-80
2022/05/30 07:48:09;;;;;;;3.30;2.60;;;16.70;81.30;18.10;95885.00;;;;5056361;28;20203;-79
2022/05/30 07:50:38;;;;;;;2.63;2.43;;;16.80;80.60;18.10;95892.00;;;;5054130;28;20216;-80
2022/05/30 07:53:07;;;;;;;2.87;2.47;;;17.00;80.00;18.20;95891.00;;;;5048564;28;20221;-80
2022/05/30 07:55:38;;;;;;;2.70;2.60;;;17.10;79.80;18.30;95903.00;;;;5052367;28;20223;-80
2022/05/30 07:58:05;;;;;;;2.60;2.50;;;17.10;79.70;18.50;95904.00;;;;5052013;28;20189;-80
2022/05/30 08:00:35;;;;;;;2.73;2.53;;;17.20;79.90;18.70;95895.00;;;;5056435;28;20201;-80
2022/05/30 08:03:05;;;;;;;2.57;2.40;;;17.30;79.90;18.80;95901.00;;;;5058533;28;20649;-80
2022/05/30 08:05:33;;;;;;;2.90;2.67;;;17.40;80.00;19.00;95898.00;;;;5054854;28;20584;-83
2022/05/30 08:08:00;;;;;;;2.73;2.53;;;17.60;80.10;19.30;95903.00;;;;5054790;28;20215;-81
2022/05/30 08:10:27;;;;;;;2.47;2.37;;;17.70;80.30;19.60;95900.00;;;;5050285;28;20203;-80
2022/05/30 08:12:56;;;;;;;2.57;2.37;;;17.80;79.90;20.00;95909.00;;;;5064605;28;20219;-82
2022/05/30 08:15:23;;;;;;;2.47;2.27;;;18.00;79.90;20.40;95901.00;;;;5052547;28;20196;-80
2022/05/30 08:17:54;;;;;;;2.60;2.07;;;18.20;79.10;20.80;95907.00;;;;5052970;28;20192;-80
2022/05/30 08:20:21;;;;;;;2.10;2.00;;;18.40;79.20;21.20;95916.00;;;;5051122;28;20193;-82
2022/05/30 08:22:48;;;;;;;2.37;2.17;;;18.60;79.20;21.70;95917.00;;;;5053097;28;20205;-80
2022/05/30 08:25:19;;;;;;;2.33;2.17;;;18.80;79.40;22.00;95922.00;;;;5049208;28;20207;-80
2022/05/30 08:27:48;;;;;;;1.97;1.87;;;19.10;79.10;22.10;95931.00;;;;5047458;28;20196;-81
2022/05/30 08:30:20;;;;;;;1.97;1.87;;;19.30;78.20;22.30;95923.00;;;;5054498;28;20205;-80
2022/05/30 08:32:48;;;;;;;2.73;2.53;;;19.50;77.50;22.50;95928.00;;;;5047218;28;20204;-81
2022/05/30 08:35:19;;;;;;;2.10;2.00;;;19.70;77.70;22.80;95923.00;;;;5051878;28;20193;-81
2022/05/30 08:37:47;;;;;;;2.07;1.97;;;19.90;78.20;23.20;95933.00;;;;5063536;28;20195;-81
2022/05/30 08:43:13;;;;;;;2.40;1.90;;;20.40;75.80;23.80;95926.00;;;;5043660;28;20579;-81
2022/05/30 08:45:45;;;;;;;1.87;1.77;;;20.60;76.00;23.90;95932.00;;;;5053995;28;20225;-82
2022/05/30 08:48:15;;;;;;;1.70;1.60;;;20.80;75.80;24.30;95932.00;;;;5053240;28;20201;-81
2022/05/30 08:50:52;;;;;;;1.70;1.60;;;21.10;75.40;24.80;95936.00;;;;5055033;28;20205;-80
2022/05/30 08:54:02;;;;;;;1.57;1.47;;;21.50;75.10;25.30;95942.00;;;;5052251;28;20209;-82
2022/05/30 08:56:35;;;;;;;1.27;1.17;;;21.90;71.20;25.90;95945.00;;;;5054814;28;20216;-80
2022/05/30 08:59:31;;;;;;;1.33;1.33;;;22.30;74.40;26.40;95943.00;;;;5068793;28;20196;-82
2022/05/30 09:02:07;;;;;;;1.10;1.10;;;22.70;71.40;26.70;95947.00;;;;5055698;28;20756;-80
2022/05/30 09:04:41;;;;;;;1.73;1.17;;;23.00;71.90;26.60;95954.00;;;;5056073;28;20285;-84
2022/05/30 09:07:16;;;;;;;1.20;1.10;;;23.30;69.60;26.50;95955.00;;;;5040486;28;20224;-80
2022/05/30 09:09:52;;;;;;;0.80;0.80;;;23.50;66.70;26.40;95953.00;;;;5036192;28;20614;-80
2022/05/30 09:12:27;;;;;;;1.00;1.00;;;23.70;66.70;26.40;95958.00;;;;5043616;28;20555;-81
2022/05/30 09:15:00;;;;;;;1.53;1.17;;;23.80;66.60;26.30;95961.00;;;;5035811;28;20208;-82
2022/05/30 09:17:36;;;;;;;0.80;0.80;;;23.90;64.60;26.20;95952.00;;;;5045627;28;20697;-81
2022/05/30 09:20:10;;;;;;;0.93;0.90;;;24.00;62.90;26.30;95955.00;;;;5055532;28;20194;-81
2022/05/30 09:22:39;;;;;;;1.20;1.10;;;24.20;63.30;26.20;95960.00;;;;5055500;28;20671;-81
2022/05/30 09:27:56;;;;;;;1.37;1.10;;;24.40;62.40;26.10;95945.00;;;;5041711;28;20212;-83
2022/05/30 09:30:33;;;;;;;1.00;1.00;;;24.50;62.90;26.00;95952.00;;;;5035967;28;20208;-81
2022/05/30 09:33:16;;;;;;;1.80;0.70;;;24.60;60.90;25.80;95945.00;;;;5053796;28;20238;-82
2022/05/30 09:35:44;;;;;;;0.80;0.80;;;24.60;58.80;26.00;95948.00;;;;5075322;28;20234;-81
2022/05/30 09:38:18;;;;;;;0.77;0.77;;;24.70;60.50;26.10;95948.00;;;;5076817;28;20207;-81
2022/05/30 09:40:52;;;;;;;0.70;0.70;;;24.90;60.20;26.10;95951.00;;;;5075636;28;20183;-81
2022/05/30 09:43:28;;;;;;;0.80;0.80;;;25.00;59.20;26.30;95947.00;;;;5075979;28;20217;-82
2022/05/30 09:45:56;;;;;;;3.67;0.60;;;25.30;58.50;26.60;95946.00;;;;5067518;28;20689;-80
2022/05/30 09:48:24;;;;;;;0.70;0.50;;;25.60;60.20;26.80;95944.00;;;;5055214;28;20315;-82
2022/05/30 09:50:56;;;;;;;1.50;0.63;;;26.00;61.10;27.10;95939.00;;;;5055024;28;20204;-81
2022/05/30 09:53:43;;;;;;;0.93;0.60;;;26.30;60.30;27.40;95944.00;;;;5054808;28;20638;-80
2022/05/30 09:56:15;;;;;;;1.30;0.80;;;26.70;58.70;27.70;95940.00;;;;5054095;28;20209;-80
2022/05/30 09:58:46;;;;;;;1.17;0.70;;;27.10;59.80;28.00;95939.00;;;;5057504;28;20562;-81
2022/05/30 10:01:23;;;;;;;1.40;0.60;;;27.40;57.70;28.20;95937.00;;;;5057554;28;20181;-82
2022/05/30 10:03:56;;;;;;;0.55;0.55;;;27.80;58.00;28.50;95935.00;;;;5054969;28;20185;-81
2022/05/30 10:06:26;;;;;;;0.88;0.70;;;28.10;58.50;28.70;95936.00;;;;5055761;28;20289;-82
2022/05/30 10:09:10;;;;;;;1.20;0.60;;;28.40;58.30;28.80;95945.00;;;;5056043;28;20588;-83
2022/05/30 10:11:38;;;;;;;1.05;0.60;;;28.70;54.00;28.80;95948.00;;;;5053503;28;20665;-82
2022/05/30 10:14:20;;;;;;;1.55;0.55;;;28.90;55.70;28.80;95944.00;;;;5056474;28;20217;-81
2022/05/30 10:16:47;;;;;;;0.60;0.60;;;29.10;52.40;28.70;95950.00;;;;5056147;28;20216;-81
2022/05/30 10:19:28;;;;;;;0.60;0.60;;;29.20;54.20;28.70;95950.00;;;;5055819;28;20200;-81
2022/05/30 10:28:26;;;;;;;0.50;0.50;;;29.30;52.40;28.50;95954.00;;;;5025811;28;20192;-82
2022/05/30 10:31:12;;;;;;;1.13;0.70;;;29.30;51.10;28.30;95956.00;;;;5075748;28;20200;-81
2022/05/30 10:34:22;;;;;;;0.80;0.80;;;29.10;49.40;27.90;95947.00;;;;5075578;28;20214;-81
2022/05/30 10:37:15;;;;;;;1.08;0.50;;;28.80;49.40;27.60;95945.00;;;;5054182;28;20232;-81
2022/05/30 10:40:23;;;;;;;0.60;0.60;;;28.40;49.50;27.20;95943.00;;;;5055806;28;20200;-80
2022/05/30 10:42:57;;;;;;;0.60;0.60;;;28.00;49.40;26.90;95944.00;;;;5034689;28;20211;-82
2022/05/30 10:45:32;;;;;;;0.50;0.43;;;27.50;49.70;26.70;95942.00;;;;5048637;28;20196;-81
2022/05/30 10:48:02;;;;;;;0.53;0.50;;;27.20;49.70;26.40;95939.00;;;;5050926;28;20196;-81
2022/05/30 10:50:46;;;;;;;0.40;0.40;;;26.90;51.00;26.20;95945.00;;;;5064200;28;20679;-81
2022/05/30 10:53:29;;;;;;;0.50;0.50;;;26.50;50.00;25.80;95937.00;;;;5054915;28;20674;-81
2022/05/30 10:56:05;;;;;;;0.60;0.60;;;26.20;48.90;25.50;95927.00;;;;5049819;28;20231;-83
2022/05/30 10:58:41;;;;;;;0.70;0.70;;;25.80;49.10;25.20;95925.00;;;;5054488;28;20660;-82
2022/05/30 11:01:20;;;;;;;1.30;0.60;;;25.40;49.50;24.90;95925.00;;;;5054599;28;20191;-84
2022/05/30 11:03:54;;;;;;;0.50;0.40;;;25.00;50.10;24.60;95922.00;;;;5054699;28;20192;-83
2022/05/30 11:06:28;;;;;;;0.30;0.30;;;24.70;51.20;24.40;95922.00;;;;5054442;28;20568;-82
2022/05/30 11:09:07;;;;;;;1.00;0.90;;;24.30;51.60;24.20;95927.00;;;;5053409;28;20523;-81
2022/05/30 11:11:44;;;;;;;0.67;0.50;;;24.10;52.90;24.00;95922.00;;;;5040717;28;20656;-80
2022/05/30 11:14:24;;;;;;;0.60;0.60;;;23.80;53.00;23.80;95928.00;;;;5044155;28;20216;-82
2022/05/30 11:16:59;;;;;;;0.70;0.70;;;23.50;52.70;23.70;95929.00;;;;5034050;28;20217;-84
2022/05/30 11:19:41;;;;;;;0.80;0.70;;;23.30;52.60;23.60;95929.00;;;;5038068;28;20551;-82
2022/05/30 11:22:16;;;;;;;0.90;0.70;;;23.20;53.10;23.50;95925.00;;;;5054617;28;20185;-82
2022/05/30 11:24:52;;;;;;;0.87;0.53;;;23.00;53.20;23.40;95930.00;;;;5054071;28;20540;-84
2022/05/30 11:27:38;;;;;;;0.70;0.70;;;22.80;54.10;23.30;95939.00;;;;5053199;28;20633;-82
2022/05/30 11:30:42;;;;;;;0.60;0.60;;;22.70;53.40;23.20;95929.00;;;;5054379;28;20625;-81